sensor_id;sensor_type;location;lat;lon;timestamp;temperature;humidity
46309;DHT22;32037;50.820;6.494;2023-04-06T00:00:15;11.40;90.20
46309;DHT22;32037;50.820;6.494;2023-04-06T00:02:44;11.40;90.20
46309;DHT22;32037;50.820;6.494;2023-04-06T00:05:12;11.40;90.20
46309;DHT22;32037;50.820;6.494;2023-04-06T00:07:41;11.40;90.20
46309;DHT22;32037;50.820;6.494;2023-04-06T00:10:10;11.40;90.40
46309;DHT22;32037;50.820;6.494;2023-04-06T00:12:39;11.40;90.40
46309;DHT22;32037;50.820;6.494;2023-04-06T00:15:09;11.40;90.40
46309;DHT22;32037;50.820;6.494;2023-04-06T00:17:37;11.40;90.40
46309;DHT22;32037;50.820;6.494;2023-04-06T00:20:07;11.40;90.10
46309;DHT22;32037;50.820;6.494;2023-04-06T00:22:35;11.40;90.30
46309;DHT22;32037;50.820;6.494;2023-04-06T00:25:05;11.40;90.90
46309;DHT22;32037;50.820;6.494;2023-04-06T00:27:33;11.40;90.30
46309;DHT22;32037;50.820;6.494;2023-04-06T00:30:04;11.40;90.30
46309;DHT22;32037;50.820;6.494;2023-04-06T00:32:33;11.40;90.20
46309;DHT22;32037;50.820;6.494;2023-04-06T00:35:02;11.40;90.30
46309;DHT22;32037;50.820;6.494;2023-04-06T00:37:31;11.40;90.40
46309;DHT22;32037;50.820;6.494;2023-04-06T00:39:59;11.30;90.30
46309;DHT22;32037;50.820;6.494;2023-04-06T00:42:28;11.40;90.30
46309;DHT22;32037;50.820;6.494;2023-04-06T00:44:58;11.30;90.30
46309;DHT22;32037;50.820;6.494;2023-04-06T00:47:28;11.30;90.30
46309;DHT22;32037;50.820;6.494;2023-04-06T00:49:57;11.30;90.30
46309;DHT22;32037;50.820;6.494;2023-04-06T00:52:26;11.30;90.30
46309;DHT22;32037;50.820;6.494;2023-04-06T00:54:54;11.30;90.30
46309;DHT22;32037;50.820;6.494;2023-04-06T00:57:23;11.30;90.30
46309;DHT22;32037;50.820;6.494;2023-04-06T00:59:55;11.30;90.30
46309;DHT22;32037;50.820;6.494;2023-04-06T01:02:24;11.30;90.40
46309;DHT22;32037;50.820;6.494;2023-04-06T01:04:55;11.30;90.30
46309;DHT22;32037;50.820;6.494;2023-04-06T01:07:44;11.30;90.30
46309;DHT22;32037;50.820;6.494;2023-04-06T01:10:24;11.30;90.40
46309;DHT22;32037;50.820;6.494;2023-04-06T01:12:58;11.30;90.40
46309;DHT22;32037;50.820;6.494;2023-04-06T01:15:59;11.30;90.30
46309;DHT22;32037;50.820;6.494;2023-04-06T01:18:35;11.30;90.30
46309;DHT22;32037;50.820;6.494;2023-04-06T01:21:15;11.30;90.30
46309;DHT22;32037;50.820;6.494;2023-04-06T01:24:00;11.30;90.30
46309;DHT22;32037;50.820;6.494;2023-04-06T01:26:39;11.30;90.30
46309;DHT22;32037;50.820;6.494;2023-04-06T01:29:09;11.30;90.30
46309;DHT22;32037;50.820;6.494;2023-04-06T01:31:38;11.20;90.30
46309;DHT22;32037;50.820;6.494;2023-04-06T01:34:07;11.20;90.30
46309;DHT22;32037;50.820;6.494;2023-04-06T01:36:35;11.20;90.30
46309;DHT22;32037;50.820;6.494;2023-04-06T01:39:21;11.30;90.30
46309;DHT22;32037;50.820;6.494;2023-04-06T01:41:50;11.20;90.30
46309;DHT22;32037;50.820;6.494;2023-04-06T01:44:20;11.20;90.40
46309;DHT22;32037;50.820;6.494;2023-04-06T01:47:00;11.20;90.30
46309;DHT22;32037;50.820;6.494;2023-04-06T01:49:28;11.20;90.40
46309;DHT22;32037;50.820;6.494;2023-04-06T01:51:57;11.20;90.30
46309;DHT22;32037;50.820;6.494;2023-04-06T01:54:28;11.20;90.40
46309;DHT22;32037;50.820;6.494;2023-04-06T01:57:17;11.20;90.40
46309;DHT22;32037;50.820;6.494;2023-04-06T02:00:15;11.20;90.40
46309;DHT22;32037;50.820;6.494;2023-04-06T02:02:50;11.20;90.40
46309;DHT22;32037;50.820;6.494;2023-04-06T02:05:25;11.20;90.40
46309;DHT22;32037;50.820;6.494;2023-04-06T02:07:55;11.20;90.40
46309;DHT22;32037;50.820;6.494;2023-04-06T02:10:34;11.20;90.40
46309;DHT22;32037;50.820;6.494;2023-04-06T02:13:11;11.20;90.30
46309;DHT22;32037;50.820;6.494;2023-04-06T02:15:45;11.20;90.40
46309;DHT22;32037;50.820;6.494;2023-04-06T02:18:13;11.20;90.40
46309;DHT22;32037;50.820;6.494;2023-04-06T02:20:42;11.20;90.40
46309;DHT22;32037;50.820;6.494;2023-04-06T02:23:11;11.20;90.50
46309;DHT22;32037;50.820;6.494;2023-04-06T02:25:41;11.20;90.50
46309;DHT22;32037;50.820;6.494;2023-04-06T02:28:09;11.20;90.40
46309;DHT22;32037;50.820;6.494;2023-04-06T02:30:38;11.10;90.40
46309;DHT22;32037;50.820;6.494;2023-04-06T02:33:06;11.10;90.50
46309;DHT22;32037;50.820;6.494;2023-04-06T02:35:44;11.10;90.50
46309;DHT22;32037;50.820;6.494;2023-04-06T02:38:13;11.10;90.40
46309;DHT22;32037;50.820;6.494;2023-04-06T02:40:43;11.10;90.40
46309;DHT22;32037;50.820;6.494;2023-04-06T02:43:19;11.10;90.40
46309;DHT22;32037;50.820;6.494;2023-04-06T02:45:52;11.10;90.50
46309;DHT22;32037;50.820;6.494;2023-04-06T02:48:23;11.10;90.50
46309;DHT22;32037;50.820;6.494;2023-04-06T02:50:52;11.10;90.40
46309;DHT22;32037;50.820;6.494;2023-04-06T02:53:21;11.10;90.40
46309;DHT22;32037;50.820;6.494;2023-04-06T02:55:51;11.10;90.50
46309;DHT22;32037;50.820;6.494;2023-04-06T02:58:20;11.10;90.40
46309;DHT22;32037;50.820;6.494;2023-04-06T03:00:53;11.10;90.40
46309;DHT22;32037;50.820;6.494;2023-04-06T03:03:21;11.10;90.40
46309;DHT22;32037;50.820;6.494;2023-04-06T03:05:50;11.00;90.40
46309;DHT22;32037;50.820;6.494;2023-04-06T03:08:25;11.00;90.40
46309;DHT22;32037;50.820;6.494;2023-04-06T03:10:55;11.10;90.40
46309;DHT22;32037;50.820;6.494;2023-04-06T03:13:31;11.00;90.40
46309;DHT22;32037;50.820;6.494;2023-04-06T03:16:00;11.00;90.40
46309;DHT22;32037;50.820;6.494;2023-04-06T03:18:28;11.00;90.30
46309;DHT22;32037;50.820;6.494;2023-04-06T03:20:57;11.00;90.40
46309;DHT22;32037;50.820;6.494;2023-04-06T03:23:47;11.00;90.40
46309;DHT22;32037;50.820;6.494;2023-04-06T03:26:19;11.00;90.50
46309;DHT22;32037;50.820;6.494;2023-04-06T03:28:51;11.00;90.50
46309;DHT22;32037;50.820;6.494;2023-04-06T03:31:24;11.00;90.50
46309;DHT22;32037;50.820;6.494;2023-04-06T03:34:05;11.00;90.50
46309;DHT22;32037;50.820;6.494;2023-04-06T03:36:35;11.00;90.40
46309;DHT22;32037;50.820;6.494;2023-04-06T03:39:05;11.00;90.40
46309;DHT22;32037;50.820;6.494;2023-04-06T03:41:39;11.00;90.40
46309;DHT22;32037;50.820;6.494;2023-04-06T03:44:29;11.00;90.40
46309;DHT22;32037;50.820;6.494;2023-04-06T03:46:58;11.00;90.50
46309;DHT22;32037;50.820;6.494;2023-04-06T03:49:27;10.90;90.40
46309;DHT22;32037;50.820;6.494;2023-04-06T03:51:57;11.00;90.50
46309;DHT22;32037;50.820;6.494;2023-04-06T03:54:25;10.90;90.40
46309;DHT22;32037;50.820;6.494;2023-04-06T03:56:55;10.90;90.50
46309;DHT22;32037;50.820;6.494;2023-04-06T03:59:26;10.90;90.50
46309;DHT22;32037;50.820;6.494;2023-04-06T04:01:54;10.90;90.50
46309;DHT22;32037;50.820;6.494;2023-04-06T04:04:23;10.90;90.60
46309;DHT22;32037;50.820;6.494;2023-04-06T04:06:51;10.90;90.60
46309;DHT22;32037;50.820;6.494;2023-04-06T04:09:20;10.90;90.60
46309;DHT22;32037;50.820;6.494;2023-04-06T04:11:50;10.90;90.50
46309;DHT22;32037;50.820;6.494;2023-04-06T04:14:21;10.90;90.60
46309;DHT22;32037;50.820;6.494;2023-04-06T04:16:49;10.90;90.60
46309;DHT22;32037;50.820;6.494;2023-04-06T04:19:18;10.90;90.60
46309;DHT22;32037;50.820;6.494;2023-04-06T04:21:48;10.90;90.60
46309;DHT22;32037;50.820;6.494;2023-04-06T04:24:21;10.90;90.60
46309;DHT22;32037;50.820;6.494;2023-04-06T04:26:50;10.90;90.60
46309;DHT22;32037;50.820;6.494;2023-04-06T04:29:20;10.90;90.60
46309;DHT22;32037;50.820;6.494;2023-04-06T04:31:51;10.80;90.60
46309;DHT22;32037;50.820;6.494;2023-04-06T04:34:20;10.80;90.60
46309;DHT22;32037;50.820;6.494;2023-04-06T04:36:51;10.80;90.60
46309;DHT22;32037;50.820;6.494;2023-04-06T04:39:28;10.80;90.70
46309;DHT22;32037;50.820;6.494;2023-04-06T04:42:02;10.80;90.70
46309;DHT22;32037;50.820;6.494;2023-04-06T04:44:35;10.80;90.60
46309;DHT22;32037;50.820;6.494;2023-04-06T04:47:04;10.80;90.80
46309;DHT22;32037;50.820;6.494;2023-04-06T04:49:41;10.80;90.70
46309;DHT22;32037;50.820;6.494;2023-04-06T04:52:12;10.80;90.80
46309;DHT22;32037;50.820;6.494;2023-04-06T04:54:59;10.80;90.80
46309;DHT22;32037;50.820;6.494;2023-04-06T04:57:28;10.80;90.80
46309;DHT22;32037;50.820;6.494;2023-04-06T04:59:59;10.80;90.90
46309;DHT22;32037;50.820;6.494;2023-04-06T05:02:29;10.80;90.90
46309;DHT22;32037;50.820;6.494;2023-04-06T05:05:33;10.80;90.90
46309;DHT22;32037;50.820;6.494;2023-04-06T05:08:03;10.80;90.90
46309;DHT22;32037;50.820;6.494;2023-04-06T05:10:44;10.70;90.90
46309;DHT22;32037;50.820;6.494;2023-04-06T05:13:14;10.80;91.00
46309;DHT22;32037;50.820;6.494;2023-04-06T05:15:45;10.70;90.90
46309;DHT22;32037;50.820;6.494;2023-04-06T05:18:22;10.70;91.00
46309;DHT22;32037;50.820;6.494;2023-04-06T05:20:51;10.80;91.00
46309;DHT22;32037;50.820;6.494;2023-04-06T05:23:26;10.70;91.00
46309;DHT22;32037;50.820;6.494;2023-04-06T05:25:55;10.70;90.90
46309;DHT22;32037;50.820;6.494;2023-04-06T05:28:23;10.70;91.00
46309;DHT22;32037;50.820;6.494;2023-04-06T05:30:53;10.70;91.00
46309;DHT22;32037;50.820;6.494;2023-04-06T05:33:22;10.70;91.00
46309;DHT22;32037;50.820;6.494;2023-04-06T05:36:00;10.70;91.10
46309;DHT22;32037;50.820;6.494;2023-04-06T05:38:31;10.70;90.90
46309;DHT22;32037;50.820;6.494;2023-04-06T05:41:09;10.70;91.10
46309;DHT22;32037;50.820;6.494;2023-04-06T05:43:39;10.70;90.80
46309;DHT22;32037;50.820;6.494;2023-04-06T05:46:09;10.70;91.00
46309;DHT22;32037;50.820;6.494;2023-04-06T05:48:38;10.70;91.10
46309;DHT22;32037;50.820;6.494;2023-04-06T05:51:07;10.60;91.00
46309;DHT22;32037;50.820;6.494;2023-04-06T05:53:44;10.70;91.10
46309;DHT22;32037;50.820;6.494;2023-04-06T05:56:13;10.60;91.10
46309;DHT22;32037;50.820;6.494;2023-04-06T05:58:43;10.60;91.10
46309;DHT22;32037;50.820;6.494;2023-04-06T06:01:16;10.60;91.20
46309;DHT22;32037;50.820;6.494;2023-04-06T06:03:46;10.70;91.20
46309;DHT22;32037;50.820;6.494;2023-04-06T06:06:16;10.60;91.20
46309;DHT22;32037;50.820;6.494;2023-04-06T06:09:05;10.60;91.20
46309;DHT22;32037;50.820;6.494;2023-04-06T06:11:40;10.60;91.20
46309;DHT22;32037;50.820;6.494;2023-04-06T06:14:12;10.60;91.20
46309;DHT22;32037;50.820;6.494;2023-04-06T06:16:43;10.60;90.90
46309;DHT22;32037;50.820;6.494;2023-04-06T06:19:14;10.60;91.20
46309;DHT22;32037;50.820;6.494;2023-04-06T06:21:44;10.60;91.10
46309;DHT22;32037;50.820;6.494;2023-04-06T06:24:14;10.60;91.30
46309;DHT22;32037;50.820;6.494;2023-04-06T06:26:43;10.60;91.30
46309;DHT22;32037;50.820;6.494;2023-04-06T06:29:12;10.60;90.90
46309;DHT22;32037;50.820;6.494;2023-04-06T06:31:43;10.60;91.40
46309;DHT22;32037;50.820;6.494;2023-04-06T06:34:12;10.60;91.00
46309;DHT22;32037;50.820;6.494;2023-04-06T06:36:42;10.60;91.20
46309;DHT22;32037;50.820;6.494;2023-04-06T06:39:14;10.60;91.30
46309;DHT22;32037;50.820;6.494;2023-04-06T06:41:43;10.60;91.60
46309;DHT22;32037;50.820;6.494;2023-04-06T06:44:11;10.60;91.30
46309;DHT22;32037;50.820;6.494;2023-04-06T06:46:40;10.60;91.30
46309;DHT22;32037;50.820;6.494;2023-04-06T06:49:09;10.50;91.50
46309;DHT22;32037;50.820;6.494;2023-04-06T06:51:39;10.60;91.30
46309;DHT22;32037;50.820;6.494;2023-04-06T06:54:08;10.50;91.60
46309;DHT22;32037;50.820;6.494;2023-04-06T06:56:37;10.60;91.50
46309;DHT22;32037;50.820;6.494;2023-04-06T06:59:06;10.60;91.20
46309;DHT22;32037;50.820;6.494;2023-04-06T07:01:36;10.60;91.50
46309;DHT22;32037;50.820;6.494;2023-04-06T07:04:06;10.60;90.80
46309;DHT22;32037;50.820;6.494;2023-04-06T07:06:37;10.60;88.60
46309;DHT22;32037;50.820;6.494;2023-04-06T07:09:06;10.60;87.30
46309;DHT22;32037;50.820;6.494;2023-04-06T07:11:35;10.60;89.10
46309;DHT22;32037;50.820;6.494;2023-04-06T07:14:05;10.60;90.00
46309;DHT22;32037;50.820;6.494;2023-04-06T07:16:34;10.60;88.10
46309;DHT22;32037;50.820;6.494;2023-04-06T07:19:04;10.60;88.50
46309;DHT22;32037;50.820;6.494;2023-04-06T07:21:33;10.60;88.30
46309;DHT22;32037;50.820;6.494;2023-04-06T07:24:04;10.60;88.20
46309;DHT22;32037;50.820;6.494;2023-04-06T07:26:33;10.60;89.10
46309;DHT22;32037;50.820;6.494;2023-04-06T07:29:04;10.60;89.10
46309;DHT22;32037;50.820;6.494;2023-04-06T07:31:33;10.60;88.10
46309;DHT22;32037;50.820;6.494;2023-04-06T07:34:03;10.60;88.90
46309;DHT22;32037;50.820;6.494;2023-04-06T07:36:32;10.60;88.40
46309;DHT22;32037;50.820;6.494;2023-04-06T07:39:01;10.60;89.10
46309;DHT22;32037;50.820;6.494;2023-04-06T07:41:31;10.60;88.90
46309;DHT22;32037;50.820;6.494;2023-04-06T07:44:01;10.60;88.70
46309;DHT22;32037;50.820;6.494;2023-04-06T07:46:29;10.60;89.90
46309;DHT22;32037;50.820;6.494;2023-04-06T07:49:00;10.60;90.20
46309;DHT22;32037;50.820;6.494;2023-04-06T07:51:31;10.60;90.00
46309;DHT22;32037;50.820;6.494;2023-04-06T07:54:00;10.60;90.50
46309;DHT22;32037;50.820;6.494;2023-04-06T07:56:30;10.60;90.20
46309;DHT22;32037;50.820;6.494;2023-04-06T07:58:59;10.60;90.20
46309;DHT22;32037;50.820;6.494;2023-04-06T08:01:28;10.60;90.00
46309;DHT22;32037;50.820;6.494;2023-04-06T08:03:57;10.60;90.20
46309;DHT22;32037;50.820;6.494;2023-04-06T08:06:29;10.60;90.10
46309;DHT22;32037;50.820;6.494;2023-04-06T08:08:57;10.60;90.30
46309;DHT22;32037;50.820;6.494;2023-04-06T08:11:26;10.60;90.80
46309;DHT22;32037;50.820;6.494;2023-04-06T08:13:56;10.60;90.90
46309;DHT22;32037;50.820;6.494;2023-04-06T08:16:25;10.60;90.60
46309;DHT22;32037;50.820;6.494;2023-04-06T08:18:54;10.60;90.80
46309;DHT22;32037;50.820;6.494;2023-04-06T08:21:23;10.60;91.00
46309;DHT22;32037;50.820;6.494;2023-04-06T08:23:52;10.50;91.00
46309;DHT22;32037;50.820;6.494;2023-04-06T08:26:21;10.50;91.00
46309;DHT22;32037;50.820;6.494;2023-04-06T08:28:49;10.60;91.10
46309;DHT22;32037;50.820;6.494;2023-04-06T08:31:19;10.60;91.10
46309;DHT22;32037;50.820;6.494;2023-04-06T08:33:48;10.50;91.20
46309;DHT22;32037;50.820;6.494;2023-04-06T08:36:17;10.50;91.20
46309;DHT22;32037;50.820;6.494;2023-04-06T08:38:49;10.50;91.30
46309;DHT22;32037;50.820;6.494;2023-04-06T08:41:21;10.60;91.20
46309;DHT22;32037;50.820;6.494;2023-04-06T08:43:55;10.50;91.20
46309;DHT22;32037;50.820;6.494;2023-04-06T08:46:29;10.50;91.20
46309;DHT22;32037;50.820;6.494;2023-04-06T08:48:59;10.50;91.30
46309;DHT22;32037;50.820;6.494;2023-04-06T08:51:29;10.50;91.40
46309;DHT22;32037;50.820;6.494;2023-04-06T08:53:59;10.50;91.40
46309;DHT22;32037;50.820;6.494;2023-04-06T08:56:28;10.50;91.40
46309;DHT22;32037;50.820;6.494;2023-04-06T08:58:57;10.50;91.30
46309;DHT22;32037;50.820;6.494;2023-04-06T09:01:28;10.50;91.40
46309;DHT22;32037;50.820;6.494;2023-04-06T09:03:58;10.50;91.30
46309;DHT22;32037;50.820;6.494;2023-04-06T09:06:28;10.50;91.40
46309;DHT22;32037;50.820;6.494;2023-04-06T09:08:58;10.50;91.30
46309;DHT22;32037;50.820;6.494;2023-04-06T09:11:27;10.50;91.40
46309;DHT22;32037;50.820;6.494;2023-04-06T09:13:57;10.50;91.40
46309;DHT22;32037;50.820;6.494;2023-04-06T09:16:27;10.50;91.30
46309;DHT22;32037;50.820;6.494;2023-04-06T09:19:03;10.50;91.30
46309;DHT22;32037;50.820;6.494;2023-04-06T09:21:33;10.50;91.50
46309;DHT22;32037;50.820;6.494;2023-04-06T09:24:03;10.50;91.40
46309;DHT22;32037;50.820;6.494;2023-04-06T09:26:44;10.50;91.40
46309;DHT22;32037;50.820;6.494;2023-04-06T09:29:22;10.50;91.30
46309;DHT22;32037;50.820;6.494;2023-04-06T09:32:03;10.50;91.40
46309;DHT22;32037;50.820;6.494;2023-04-06T09:34:33;10.50;91.20
46309;DHT22;32037;50.820;6.494;2023-04-06T09:37:12;10.50;91.30
46309;DHT22;32037;50.820;6.494;2023-04-06T09:39:41;10.50;91.30
46309;DHT22;32037;50.820;6.494;2023-04-06T09:42:22;10.50;91.30
46309;DHT22;32037;50.820;6.494;2023-04-06T09:44:51;10.50;91.30
46309;DHT22;32037;50.820;6.494;2023-04-06T09:47:23;10.50;91.20
46309;DHT22;32037;50.820;6.494;2023-04-06T09:49:56;10.50;91.40
46309;DHT22;32037;50.820;6.494;2023-04-06T09:52:27;10.50;91.30
46309;DHT22;32037;50.820;6.494;2023-04-06T09:54:58;10.50;91.50
46309;DHT22;32037;50.820;6.494;2023-04-06T09:57:32;10.50;91.40
46309;DHT22;32037;50.820;6.494;2023-04-06T10:00:04;10.50;91.40
46309;DHT22;32037;50.820;6.494;2023-04-06T10:02:45;10.50;91.50
46309;DHT22;32037;50.820;6.494;2023-04-06T10:05:25;10.50;91.50
46309;DHT22;32037;50.820;6.494;2023-04-06T10:07:57;10.50;91.40
46309;DHT22;32037;50.820;6.494;2023-04-06T10:10:28;10.50;91.40
46309;DHT22;32037;50.820;6.494;2023-04-06T10:12:58;10.50;91.40
46309;DHT22;32037;50.820;6.494;2023-04-06T10:15:28;10.50;91.40
46309;DHT22;32037;50.820;6.494;2023-04-06T10:17:59;10.50;91.40
46309;DHT22;32037;50.820;6.494;2023-04-06T10:20:31;10.50;91.40
46309;DHT22;32037;50.820;6.494;2023-04-06T10:23:06;10.50;91.30
46309;DHT22;32037;50.820;6.494;2023-04-06T10:25:36;10.50;91.30
46309;DHT22;32037;50.820;6.494;2023-04-06T10:28:05;10.50;91.40
46309;DHT22;32037;50.820;6.494;2023-04-06T10:30:35;10.50;91.30
46309;DHT22;32037;50.820;6.494;2023-04-06T10:33:14;10.50;91.30
46309;DHT22;32037;50.820;6.494;2023-04-06T10:35:43;10.50;91.30
46309;DHT22;32037;50.820;6.494;2023-04-06T10:38:12;10.50;91.30
46309;DHT22;32037;50.820;6.494;2023-04-06T10:40:42;10.50;91.10
46309;DHT22;32037;50.820;6.494;2023-04-06T10:43:12;10.50;91.30
46309;DHT22;32037;50.820;6.494;2023-04-06T10:45:43;10.50;91.30
46309;DHT22;32037;50.820;6.494;2023-04-06T10:48:17;10.50;91.30
46309;DHT22;32037;50.820;6.494;2023-04-06T10:50:49;10.50;91.30
46309;DHT22;32037;50.820;6.494;2023-04-06T10:53:21;10.50;91.30
46309;DHT22;32037;50.820;6.494;2023-04-06T10:55:51;10.50;91.30
46309;DHT22;32037;50.820;6.494;2023-04-06T10:58:20;10.50;91.30
46309;DHT22;32037;50.820;6.494;2023-04-06T11:00:49;10.50;91.20
46309;DHT22;32037;50.820;6.494;2023-04-06T11:03:19;10.50;91.30
46309;DHT22;32037;50.820;6.494;2023-04-06T11:05:49;10.50;91.20
46309;DHT22;32037;50.820;6.494;2023-04-06T11:08:29;10.50;91.40
46309;DHT22;32037;50.820;6.494;2023-04-06T11:11:05;10.50;91.40
46309;DHT22;32037;50.820;6.494;2023-04-06T11:13:39;10.50;91.40
46309;DHT22;32037;50.820;6.494;2023-04-06T11:16:13;10.50;91.30
46309;DHT22;32037;50.820;6.494;2023-04-06T11:18:53;10.50;91.40
46309;DHT22;32037;50.820;6.494;2023-04-06T11:21:33;10.50;91.40
46309;DHT22;32037;50.820;6.494;2023-04-06T11:24:07;10.50;91.50
46309;DHT22;32037;50.820;6.494;2023-04-06T11:26:44;10.60;91.60
46309;DHT22;32037;50.820;6.494;2023-04-06T11:29:16;10.50;91.50
46309;DHT22;32037;50.820;6.494;2023-04-06T11:31:45;10.50;91.50
46309;DHT22;32037;50.820;6.494;2023-04-06T11:34:18;10.50;91.50
46309;DHT22;32037;50.820;6.494;2023-04-06T11:36:48;10.50;91.60
46309;DHT22;32037;50.820;6.494;2023-04-06T11:39:19;10.50;91.60
46309;DHT22;32037;50.820;6.494;2023-04-06T11:41:48;10.50;91.80
46309;DHT22;32037;50.820;6.494;2023-04-06T11:44:28;10.50;91.60
46309;DHT22;32037;50.820;6.494;2023-04-06T11:46:58;10.50;91.90
46309;DHT22;32037;50.820;6.494;2023-04-06T11:49:28;10.50;91.50
46309;DHT22;32037;50.820;6.494;2023-04-06T11:51:57;10.50;91.40
46309;DHT22;32037;50.820;6.494;2023-04-06T11:54:33;10.50;90.70
46309;DHT22;32037;50.820;6.494;2023-04-06T11:57:02;10.50;90.50
46309;DHT22;32037;50.820;6.494;2023-04-06T11:59:31;10.50;90.50
46309;DHT22;32037;50.820;6.494;2023-04-06T12:02:01;10.60;90.20
46309;DHT22;32037;50.820;6.494;2023-04-06T12:04:31;10.60;90.50
46309;DHT22;32037;50.820;6.494;2023-04-06T12:06:59;10.60;89.20
46309;DHT22;32037;50.820;6.494;2023-04-06T12:09:29;10.60;90.30
46309;DHT22;32037;50.820;6.494;2023-04-06T12:11:57;10.60;90.00
46309;DHT22;32037;50.820;6.494;2023-04-06T12:14:26;10.60;90.40
46309;DHT22;32037;50.820;6.494;2023-04-06T12:16:54;10.60;90.00
46309;DHT22;32037;50.820;6.494;2023-04-06T12:19:23;10.60;85.60
46309;DHT22;32037;50.820;6.494;2023-04-06T12:21:54;10.60;85.70
46309;DHT22;32037;50.820;6.494;2023-04-06T12:24:23;10.60;84.00
46309;DHT22;32037;50.820;6.494;2023-04-06T12:26:51;10.70;84.00
46309;DHT22;32037;50.820;6.494;2023-04-06T12:29:36;10.70;84.40
46309;DHT22;32037;50.820;6.494;2023-04-06T12:32:05;10.70;84.00
46309;DHT22;32037;50.820;6.494;2023-04-06T12:34:34;10.60;83.90
46309;DHT22;32037;50.820;6.494;2023-04-06T12:37:04;10.60;84.60
46309;DHT22;32037;50.820;6.494;2023-04-06T12:39:35;10.60;84.10
46309;DHT22;32037;50.820;6.494;2023-04-06T12:42:03;10.60;84.90
46309;DHT22;32037;50.820;6.494;2023-04-06T12:44:31;10.60;85.40
46309;DHT22;32037;50.820;6.494;2023-04-06T12:47:00;10.60;86.10
46309;DHT22;32037;50.820;6.494;2023-04-06T12:49:29;10.60;86.50
46309;DHT22;32037;50.820;6.494;2023-04-06T12:51:58;10.60;87.50
46309;DHT22;32037;50.820;6.494;2023-04-06T12:54:28;10.60;88.00
46309;DHT22;32037;50.820;6.494;2023-04-06T12:56:57;10.60;88.60
46309;DHT22;32037;50.820;6.494;2023-04-06T12:59:25;10.60;89.10
46309;DHT22;32037;50.820;6.494;2023-04-06T13:01:54;10.60;89.60
46309;DHT22;32037;50.820;6.494;2023-04-06T13:04:23;10.60;89.60
46309;DHT22;32037;50.820;6.494;2023-04-06T13:06:51;10.60;89.30
46309;DHT22;32037;50.820;6.494;2023-04-06T13:09:19;10.60;89.70
46309;DHT22;32037;50.820;6.494;2023-04-06T13:11:49;10.60;90.10
46309;DHT22;32037;50.820;6.494;2023-04-06T13:14:18;10.60;90.00
46309;DHT22;32037;50.820;6.494;2023-04-06T13:16:46;10.60;90.10
46309;DHT22;32037;50.820;6.494;2023-04-06T13:19:15;10.60;90.10
46309;DHT22;32037;50.820;6.494;2023-04-06T13:21:45;10.60;90.40
46309;DHT22;32037;50.820;6.494;2023-04-06T13:24:14;10.60;90.40
46309;DHT22;32037;50.820;6.494;2023-04-06T13:26:45;10.60;90.40
46309;DHT22;32037;50.820;6.494;2023-04-06T13:29:15;10.60;90.50
46309;DHT22;32037;50.820;6.494;2023-04-06T13:31:44;10.60;90.50
46309;DHT22;32037;50.820;6.494;2023-04-06T13:34:12;10.60;90.50
46309;DHT22;32037;50.820;6.494;2023-04-06T13:36:41;10.60;90.80
46309;DHT22;32037;50.820;6.494;2023-04-06T13:39:09;10.60;90.80
46309;DHT22;32037;50.820;6.494;2023-04-06T13:41:38;10.60;90.80
46309;DHT22;32037;50.820;6.494;2023-04-06T13:44:07;10.60;90.90
46309;DHT22;32037;50.820;6.494;2023-04-06T13:46:36;10.60;91.20
46309;DHT22;32037;50.820;6.494;2023-04-06T13:49:05;10.60;91.20
46309;DHT22;32037;50.820;6.494;2023-04-06T13:51:34;10.60;91.20
46309;DHT22;32037;50.820;6.494;2023-04-06T13:54:02;10.60;91.40
46309;DHT22;32037;50.820;6.494;2023-04-06T13:56:31;10.60;92.10
46309;DHT22;32037;50.820;6.494;2023-04-06T13:58:59;10.60;91.50
46309;DHT22;32037;50.820;6.494;2023-04-06T14:01:28;10.60;91.50
46309;DHT22;32037;50.820;6.494;2023-04-06T14:03:58;10.60;91.80
46309;DHT22;32037;50.820;6.494;2023-04-06T14:06:27;10.60;91.90
46309;DHT22;32037;50.820;6.494;2023-04-06T14:08:58;10.60;91.80
46309;DHT22;32037;50.820;6.494;2023-04-06T14:11:26;10.60;91.80
46309;DHT22;32037;50.820;6.494;2023-04-06T14:13:55;10.60;92.00
46309;DHT22;32037;50.820;6.494;2023-04-06T14:16:25;10.60;92.00
46309;DHT22;32037;50.820;6.494;2023-04-06T14:18:53;10.60;91.90
46309;DHT22;32037;50.820;6.494;2023-04-06T14:21:26;10.60;92.10
46309;DHT22;32037;50.820;6.494;2023-04-06T14:23:54;10.60;92.10
46309;DHT22;32037;50.820;6.494;2023-04-06T14:26:25;10.60;92.40
46309;DHT22;32037;50.820;6.494;2023-04-06T14:28:54;10.60;92.30
46309;DHT22;32037;50.820;6.494;2023-04-06T14:31:23;10.60;92.40
46309;DHT22;32037;50.820;6.494;2023-04-06T14:33:51;10.60;92.50
46309;DHT22;32037;50.820;6.494;2023-04-06T14:36:19;10.60;92.50
46309;DHT22;32037;50.820;6.494;2023-04-06T14:38:49;10.60;92.60
46309;DHT22;32037;50.820;6.494;2023-04-06T14:41:21;10.60;92.60
46309;DHT22;32037;50.820;6.494;2023-04-06T14:43:50;10.60;92.70
46309;DHT22;32037;50.820;6.494;2023-04-06T14:46:19;10.60;92.90
46309;DHT22;32037;50.820;6.494;2023-04-06T14:48:48;10.60;93.00
46309;DHT22;32037;50.820;6.494;2023-04-06T14:51:17;10.60;93.10
46309;DHT22;32037;50.820;6.494;2023-04-06T14:53:46;10.60;93.20
46309;DHT22;32037;50.820;6.494;2023-04-06T14:56:20;10.60;93.30
46309;DHT22;32037;50.820;6.494;2023-04-06T14:58:49;10.60;93.70
46309;DHT22;32037;50.820;6.494;2023-04-06T15:01:19;10.60;93.90
46309;DHT22;32037;50.820;6.494;2023-04-06T15:03:47;10.70;94.10
46309;DHT22;32037;50.820;6.494;2023-04-06T15:06:18;10.60;94.00
46309;DHT22;32037;50.820;6.494;2023-04-06T15:08:48;10.60;94.00
46309;DHT22;32037;50.820;6.494;2023-04-06T15:11:17;10.60;94.70
46309;DHT22;32037;50.820;6.494;2023-04-06T15:13:47;10.60;94.40
46309;DHT22;32037;50.820;6.494;2023-04-06T15:16:15;10.60;94.60
46309;DHT22;32037;50.820;6.494;2023-04-06T15:18:44;10.60;94.70
46309;DHT22;32037;50.820;6.494;2023-04-06T15:21:12;10.70;94.90
46309;DHT22;32037;50.820;6.494;2023-04-06T15:23:40;10.60;95.00
46309;DHT22;32037;50.820;6.494;2023-04-06T15:26:09;10.60;95.40
46309;DHT22;32037;50.820;6.494;2023-04-06T15:28:37;10.60;95.40
46309;DHT22;32037;50.820;6.494;2023-04-06T15:31:14;10.60;95.60
46309;DHT22;32037;50.820;6.494;2023-04-06T15:33:59;10.60;95.80
46309;DHT22;32037;50.820;6.494;2023-04-06T15:36:28;10.70;95.80
46309;DHT22;32037;50.820;6.494;2023-04-06T15:38:57;10.60;95.70
46309;DHT22;32037;50.820;6.494;2023-04-06T15:41:26;10.70;96.00
46309;DHT22;32037;50.820;6.494;2023-04-06T15:43:55;10.60;96.00
46309;DHT22;32037;50.820;6.494;2023-04-06T15:46:25;10.60;95.90
46309;DHT22;32037;50.820;6.494;2023-04-06T15:48:55;10.70;96.10
46309;DHT22;32037;50.820;6.494;2023-04-06T15:51:23;10.60;96.30
46309;DHT22;32037;50.820;6.494;2023-04-06T15:53:52;10.60;96.10